Time;durP1;ratioP1;P1;durP2;ratioP2;P2;SDS_P1;SDS_P2;PMS_P1;PMS_P2;Temp;Humidity;BMP_temperature;BMP_pressure;BME280_temperature;BME280_humidity;BME280_pressure;Samples;Min_cycle;Max_cycle;Signal;HPM_P1;HPM_P2
2021/03/12 00:00:40;;;;;;;54.63;19.45;;;;;;;;;;8329423;28;20048;-74
2021/03/12 00:04:47;;;;;;;51.55;19.48;;;;;;;;;;8311599;28;20052;-73
2021/03/12 00:08:52;;;;;;;78.70;24.40;;;;;;;;;;8327594;28;20657;-74
2021/03/12 00:13:04;;;;;;;91.68;27.70;;;;;;;;;;8328302;28;20517;-73
2021/03/12 00:17:08;;;;;;;61.90;22.02;;;;;;;;;;8310383;28;20431;-73
2021/03/12 00:21:15;;;;;;;61.80;21.50;;;;;;;;;;8327786;28;20362;-74
2021/03/12 00:25:27;;;;;;;85.07;27.42;;;;;;;;;;8310812;28;20463;-74
2021/03/12 00:29:31;;;;;;;79.32;26.50;;;;;;;;;;8325687;28;20412;-73
2021/03/12 00:33:36;;;;;;;77.55;25.30;;;;;;;;;;8309708;28;20377;-74
2021/03/12 00:37:40;;;;;;;57.83;21.38;;;;;;;;;;8327385;28;20473;-74
2021/03/12 00:41:45;;;;;;;51.72;18.77;;;;;;;;;;8327555;28;20360;-74
2021/03/12 00:46:01;;;;;;;51.47;18.05;;;;;;;;;;8293017;28;20385;-74
2021/03/12 00:50:09;;;;;;;44.33;15.15;;;;;;;;;;8310758;28;20475;-74
2021/03/12 00:54:14;;;;;;;40.55;15.57;;;;;;;;;;8310131;28;20459;-74
2021/03/12 00:58:27;;;;;;;39.83;15.25;;;;;;;;;;8325456;28;20451;-74
2021/03/12 01:02:36;;;;;;;32.53;14.07;;;;;;;;;;8321934;28;20052;-74
2021/03/12 01:06:41;;;;;;;35.72;15.38;;;;;;;;;;8326826;28;20523;-74
2021/03/12 01:10:51;;;;;;;38.08;15.48;;;;;;;;;;8291715;28;20052;-75
2021/03/12 01:14:55;;;;;;;34.97;14.57;;;;;;;;;;8309356;28;20363;-74
2021/03/12 01:19:00;;;;;;;28.75;12.38;;;;;;;;;;8308789;28;20458;-74
2021/03/12 01:23:10;;;;;;;15.00;8.63;;;;;;;;;;8292002;28;20386;-75
2021/03/12 01:27:14;;;;;;;28.27;12.20;;;;;;;;;;8275758;28;20466;-74
2021/03/12 01:31:19;;;;;;;23.05;12.35;;;;;;;;;;8307806;28;20481;-74
2021/03/12 01:35:36;;;;;;;22.75;11.85;;;;;;;;;;8292551;28;20052;-75
2021/03/12 01:39:41;;;;;;;21.38;10.73;;;;;;;;;;8291763;28;20854;-74
2021/03/12 01:43:45;;;;;;;19.30;9.45;;;;;;;;;;8308109;28;20469;-74
2021/03/12 01:47:54;;;;;;;15.45;8.75;;;;;;;;;;8275904;28;20336;-75
2021/03/12 01:52:00;;;;;;;22.33;10.05;;;;;;;;;;8306520;28;20071;-74
2021/03/12 01:56:07;;;;;;;20.40;10.80;;;;;;;;;;8307602;28;20451;-73
2021/03/12 02:00:23;;;;;;;20.27;10.05;;;;;;;;;;8308451;28;20459;-74
2021/03/12 02:04:30;;;;;;;16.40;7.88;;;;;;;;;;8274051;28;20367;-74
2021/03/12 02:08:40;;;;;;;24.20;11.48;;;;;;;;;;8312668;28;20378;-74
2021/03/12 02:13:29;;;;;;;24.27;11.88;;;;;;;;;;8292917;28;20442;-73
2021/03/12 02:17:56;;;;;;;31.83;15.07;;;;;;;;;;8305584;28;20508;-73
2021/03/12 02:22:06;;;;;;;30.80;12.15;;;;;;;;;;8324359;28;20447;-74
2021/03/12 02:26:31;;;;;;;17.27;9.00;;;;;;;;;;8307449;28;20455;-74
2021/03/12 02:30:37;;;;;;;20.88;10.90;;;;;;;;;;8298001;28;20340;-74
2021/03/12 02:34:45;;;;;;;15.80;8.70;;;;;;;;;;8307245;28;20584;-73
2021/03/12 02:38:58;;;;;;;12.63;7.82;;;;;;;;;;8308056;28;20488;-73
2021/03/12 02:43:04;;;;;;;;;;;;;;;;;;8290081;28;20352;-74
2021/03/12 02:47:18;;;;;;;19.30;9.85;;;;;;;;;;8289221;28;19942;-74
2021/03/12 02:51:24;;;;;;;21.00;8.45;;;;;;;;;;8307466;28;20350;-73
2021/03/12 02:55:38;;;;;;;13.15;7.50;;;;;;;;;;8292088;28;20477;-73
2021/03/12 02:59:54;;;;;;;16.13;8.05;;;;;;;;;;8307898;28;20465;-73
2021/03/12 03:04:25;;;;;;;15.23;7.13;;;;;;;;;;8306942;28;20462;-73
2021/03/12 03:08:38;;;;;;;13.45;8.50;;;;;;;;;;8305584;28;20343;-74
2021/03/12 03:12:45;;;;;;;18.38;9.82;;;;;;;;;;8305210;28;20044;-73
2021/03/12 03:16:50;;;;;;;13.52;7.68;;;;;;;;;;8305384;28;20455;-73
2021/03/12 03:21:00;;;;;;;15.77;9.27;;;;;;;;;;8321772;28;20056;-74
2021/03/12 03:25:10;;;;;;;14.77;8.30;;;;;;;;;;8306079;28;20474;-73
2021/03/12 03:29:15;;;;;;;14.55;8.07;;;;;;;;;;8323212;28;20374;-73
2021/03/12 03:33:19;;;;;;;19.20;10.00;;;;;;;;;;8305380;28;20048;-73
2021/03/12 03:37:27;;;;;;;13.07;6.80;;;;;;;;;;8321717;28;20054;-73
2021/03/12 03:41:31;;;;;;;15.15;7.13;;;;;;;;;;8321005;28;20451;-73
2021/03/12 03:45:56;;;;;;;19.48;9.63;;;;;;;;;;8321622;28;20469;-74
2021/03/12 03:50:10;;;;;;;15.77;7.72;;;;;;;;;;8306821;28;20427;-73
2021/03/12 03:54:17;;;;;;;26.77;12.25;;;;;;;;;;8304244;28;20052;-73
2021/03/12 03:58:21;;;;;;;16.80;8.23;;;;;;;;;;8288467;28;20443;-73
2021/03/12 04:02:26;;;;;;;36.65;14.15;;;;;;;;;;8319972;28;20454;-73
2021/03/12 04:06:34;;;;;;;18.90;9.85;;;;;;;;;;8304868;28;20488;-73
2021/03/12 04:10:40;;;;;;;16.85;9.07;;;;;;;;;;8287846;28;20060;-73
2021/03/12 04:14:46;;;;;;;16.25;9.40;;;;;;;;;;8271678;28;20451;-73
2021/03/12 04:18:52;;;;;;;16.27;9.15;;;;;;;;;;8295024;28;20451;-73
2021/03/12 04:22:57;;;;;;;18.52;10.23;;;;;;;;;;8277090;28;20471;-73
2021/03/12 04:27:08;;;;;;;12.80;7.88;;;;;;;;;;8310037;28;20052;-73
2021/03/12 04:31:13;;;;;;;16.92;9.23;;;;;;;;;;8277956;28;20472;-72
2021/03/12 04:35:19;;;;;;;18.23;9.98;;;;;;;;;;8311238;28;20439;-72
2021/03/12 04:39:24;;;;;;;13.50;8.35;;;;;;;;;;8295091;28;20119;-72
2021/03/12 04:43:29;;;;;;;15.00;8.70;;;;;;;;;;8277490;28;20455;-72
2021/03/12 04:47:35;;;;;;;13.65;7.78;;;;;;;;;;8294689;28;20471;-73
2021/03/12 04:51:46;;;;;;;13.48;8.35;;;;;;;;;;8293195;28;20473;-72
2021/03/12 04:55:52;;;;;;;12.18;7.32;;;;;;;;;;8277114;28;20071;-72
2021/03/12 05:00:06;;;;;;;18.88;8.68;;;;;;;;;;8278913;28;20434;-72
2021/03/12 05:04:22;;;;;;;18.08;9.45;;;;;;;;;;8310002;28;20364;-73
2021/03/12 05:08:31;;;;;;;17.40;9.32;;;;;;;;;;8296521;28;20443;-72
2021/03/12 05:12:43;;;;;;;21.95;10.23;;;;;;;;;;8310533;28;20492;-72
2021/03/12 05:17:09;;;;;;;17.50;9.07;;;;;;;;;;8295468;28;20075;-72
2021/03/12 05:21:15;;;;;;;18.35;8.98;;;;;;;;;;8325013;28;20489;-72
2021/03/12 05:25:20;;;;;;;20.52;9.63;;;;;;;;;;8308106;28;20390;-72
2021/03/12 05:29:26;;;;;;;12.55;7.88;;;;;;;;;;8326032;28;20492;-72
2021/03/12 05:33:35;;;;;;;14.07;7.47;;;;;;;;;;8325701;28;20351;-72
2021/03/12 05:37:46;;;;;;;13.30;7.55;;;;;;;;;;8326196;28;20427;-72
2021/03/12 05:41:52;;;;;;;14.77;8.57;;;;;;;;;;8307393;28;20052;-73
2021/03/12 05:46:07;;;;;;;19.63;9.20;;;;;;;;;;8324625;28;20355;-73
2021/03/12 05:50:16;;;;;;;;;;;;;;;;;;8309400;28;20462;-72
2021/03/12 05:54:20;;;;;;;19.13;9.95;;;;;;;;;;8323538;28;20349;-72
2021/03/12 05:58:25;;;;;;;21.27;11.60;;;;;;;;;;8324392;28;20450;-72
2021/03/12 06:02:33;;;;;;;18.38;10.02;;;;;;;;;;8323209;28;20383;-72
2021/03/12 06:06:38;;;;;;;20.45;9.77;;;;;;;;;;8324616;28;20464;-74
2021/03/12 06:10:43;;;;;;;25.10;10.75;;;;;;;;;;8290453;28;20082;-72
2021/03/12 06:15:01;;;;;;;20.60;10.88;;;;;;;;;;8292755;28;20432;-72
2021/03/12 06:19:17;;;;;;;;;;;;;;;;;;8306869;28;20369;-72
2021/03/12 06:23:39;;;;;;;24.45;12.38;;;;;;;;;;8306893;28;20341;-72
2021/03/12 06:28:15;;;;;;;20.97;12.13;;;;;;;;;;8292730;28;20367;-73
2021/03/12 06:32:50;;;;;;;20.52;11.30;;;;;;;;;;8306180;28;20372;-73
2021/03/12 06:37:26;;;;;;;22.30;11.95;;;;;;;;;;8292774;28;20459;-72
2021/03/12 06:41:51;;;;;;;29.17;13.40;;;;;;;;;;8290703;28;20452;-72
2021/03/12 06:46:03;;;;;;;25.67;13.15;;;;;;;;;;8289770;28;20053;-72
2021/03/12 06:50:54;;;;;;;18.50;9.93;;;;;;;;;;8290091;28;20079;-72
2021/03/12 06:55:07;;;;;;;22.33;11.65;;;;;;;;;;8305667;28;20358;-73
2021/03/12 06:59:32;;;;;;;19.33;9.40;;;;;;;;;;8291025;28;20364;-74
2021/03/12 07:04:15;;;;;;;23.65;10.30;;;;;;;;;;8291671;28;20463;-75
2021/03/12 07:08:45;;;;;;;23.08;10.10;;;;;;;;;;8296598;28;20132;-75
2021/03/12 07:13:00;;;;;;;15.52;7.82;;;;;;;;;;8321382;28;20451;-75
2021/03/12 07:17:11;;;;;;;17.95;9.05;;;;;;;;;;8309515;28;20467;-75
2021/03/12 07:21:20;;;;;;;15.68;8.48;;;;;;;;;;8324308;28;20075;-76
2021/03/12 07:25:30;;;;;;;16.80;8.27;;;;;;;;;;8308019;28;20051;-75
2021/03/12 07:29:44;;;;;;;16.33;9.57;;;;;;;;;;8323454;28;20340;-74
2021/03/12 07:33:56;;;;;;;31.85;18.98;;;;;;;;;;8307904;28;20459;-74
2021/03/12 07:38:11;;;;;;;22.67;11.57;;;;;;;;;;8306660;28;20489;-74
2021/03/12 07:42:28;;;;;;;23.17;11.55;;;;;;;;;;8292547;28;20427;-74
2021/03/12 07:47:00;;;;;;;29.50;13.68;;;;;;;;;;8311061;28;20468;-74
2021/03/12 07:51:14;;;;;;;20.85;11.50;;;;;;;;;;8308487;28;20055;-75
2021/03/12 07:55:35;;;;;;;18.58;9.75;;;;;;;;;;8297821;28;20070;-74
2021/03/12 08:00:01;;;;;;;20.95;11.40;;;;;;;;;;8327564;28;20516;-74
2021/03/12 08:04:33;;;;;;;25.58;12.57;;;;;;;;;;8329684;28;20378;-75
2021/03/12 08:08:58;;;;;;;19.15;8.90;;;;;;;;;;8314260;28;20075;-74
2021/03/12 08:13:28;;;;;;;19.88;9.82;;;;;;;;;;8312133;28;20066;-74
2021/03/12 08:17:58;;;;;;;22.40;9.68;;;;;;;;;;8330214;28;20366;-74
2021/03/12 08:22:26;;;;;;;18.25;8.75;;;;;;;;;;8328141;28;20367;-74
2021/03/12 08:26:55;;;;;;;30.67;13.15;;;;;;;;;;8329385;28;20359;-74
2021/03/12 08:31:42;;;;;;;19.90;10.02;;;;;;;;;;8301801;28;20055;-74
2021/03/12 08:36:07;;;;;;;19.08;8.48;;;;;;;;;;8328662;28;20352;-73
2021/03/12 08:40:32;;;;;;;23.67;10.80;;;;;;;;;;8330893;28;20113;-74
2021/03/12 08:44:55;;;;;;;21.77;8.50;;;;;;;;;;8327392;28;20461;-73
2021/03/12 08:49:13;;;;;;;17.03;8.23;;;;;;;;;;8326069;28;20467;-73
2021/03/12 08:53:18;;;;;;;12.05;6.43;;;;;;;;;;8328212;28;20474;-74
2021/03/12 08:57:26;;;;;;;18.55;7.57;;;;;;;;;;8327125;28;20450;-73
2021/03/12 09:01:49;;;;;;;11.93;6.05;;;;;;;;;;8326187;28;20409;-73
2021/03/12 09:06:06;;;;;;;11.60;5.05;;;;;;;;;;8328241;28;20450;-73
2021/03/12 09:10:33;;;;;;;17.33;6.07;;;;;;;;;;8309565;28;20351;-74
2021/03/12 09:14:45;;;;;;;13.15;5.38;;;;;;;;;;8309951;28;20070;-73
2021/03/12 09:18:56;;;;;;;9.00;5.00;;;;;;;;;;8309081;28;20467;-74
2021/03/12 09:23:15;;;;;;;10.57;4.82;;;;;;;;;;8309488;28;20340;-74
2021/03/12 09:27:22;;;;;;;13.02;4.43;;;;;;;;;;8310809;28;20443;-74
2021/03/12 09:31:41;;;;;;;9.52;4.55;;;;;;;;;;8308178;28;20364;-73
2021/03/12 09:35:53;;;;;;;16.48;4.20;;;;;;;;;;8308010;28;20471;-74
2021/03/12 09:39:58;;;;;;;9.43;4.18;;;;;;;;;;8308782;28;20506;-74
2021/03/12 09:44:36;;;;;;;10.83;4.93;;;;;;;;;;8293509;28;20461;-74
2021/03/12 09:48:51;;;;;;;6.85;4.57;;;;;;;;;;8307912;28;20367;-73
2021/03/12 09:53:10;;;;;;;21.65;11.15;;;;;;;;;;8277781;28;20432;-73
2021/03/12 09:57:32;;;;;;;9.98;5.72;;;;;;;;;;8291145;28;20483;-75
2021/03/12 10:01:43;;;;;;;19.98;10.00;;;;;;;;;;8307984;28;20538;-74
2021/03/12 10:06:16;;;;;;;12.88;6.50;;;;;;;;;;8282928;28;20497;-73
2021/03/12 10:10:43;;;;;;;14.00;7.07;;;;;;;;;;8292243;28;20482;-74
2021/03/12 10:15:17;;;;;;;13.55;5.82;;;;;;;;;;8296449;28;20440;-73
2021/03/12 10:20:02;;;;;;;9.40;4.43;;;;;;;;;;8307475;28;20459;-74
2021/03/12 10:24:13;;;;;;;12.38;5.00;;;;;;;;;;8293956;28;20382;-75
2021/03/12 10:28:20;;;;;;;11.98;5.68;;;;;;;;;;8292532;28;20053;-74
2021/03/12 10:32:27;;;;;;;10.43;4.70;;;;;;;;;;8294447;28;20413;-74
2021/03/12 10:36:32;;;;;;;8.35;2.83;;;;;;;;;;8309781;28;20048;-73
2021/03/12 10:40:54;;;;;;;6.68;3.10;;;;;;;;;;8292827;28;20390;-74
2021/03/12 10:45:03;;;;;;;10.48;3.80;;;;;;;;;;8308102;28;20371;-74
2021/03/12 10:49:08;;;;;;;5.05;2.28;;;;;;;;;;8291871;28;20576;-73
2021/03/12 10:53:15;;;;;;;6.07;2.47;;;;;;;;;;8292873;28;20425;-73
2021/03/12 10:57:34;;;;;;;5.57;2.22;;;;;;;;;;8291992;28;20471;-73
2021/03/12 11:01:41;;;;;;;7.40;2.63;;;;;;;;;;8292077;28;20421;-73
2021/03/12 11:05:46;;;;;;;6.57;2.53;;;;;;;;;;8292959;28;20467;-74
2021/03/12 11:09:51;;;;;;;8.55;2.47;;;;;;;;;;8304156;28;20106;-74
2021/03/12 11:13:58;;;;;;;14.25;6.30;;;;;;;;;;8325370;28;20052;-73
2021/03/12 11:18:03;;;;;;;5.72;3.20;;;;;;;;;;8290842;28;20463;-73
2021/03/12 11:22:08;;;;;;;8.85;4.32;;;;;;;;;;8324399;28;20458;-73
2021/03/12 11:26:16;;;;;;;5.30;2.72;;;;;;;;;;8327617;28;20060;-73
2021/03/12 11:30:21;;;;;;;;;;;;;;;;;;8314194;28;20434;-73
2021/03/12 11:34:26;;;;;;;3.85;2.10;;;;;;;;;;8330001;28;20336;-72
2021/03/12 11:38:30;;;;;;;5.13;2.47;;;;;;;;;;8329787;28;20519;-73
2021/03/12 11:42:38;;;;;;;7.43;3.53;;;;;;;;;;8313743;28;20095;-73
2021/03/12 11:46:42;;;;;;;6.55;2.75;;;;;;;;;;8310194;28;20520;-73
2021/03/12 11:50:47;;;;;;;5.60;2.42;;;;;;;;;;8322782;28;20477;-73
2021/03/12 11:54:55;;;;;;;5.15;3.42;;;;;;;;;;8329077;28;20109;-73
2021/03/12 11:59:00;;;;;;;7.75;2.90;;;;;;;;;;8327601;28;20442;-75
2021/03/12 12:03:05;;;;;;;4.90;3.38;;;;;;;;;;8326052;28;20390;-73
2021/03/12 12:07:11;;;;;;;4.45;2.20;;;;;;;;;;8326481;28;20386;-73
2021/03/12 12:11:16;;;;;;;7.13;2.55;;;;;;;;;;8311033;28;20482;-73
2021/03/12 12:15:20;;;;;;;7.43;3.25;;;;;;;;;;8295998;28;20382;-73
2021/03/12 12:19:24;;;;;;;11.77;4.85;;;;;;;;;;8295508;28;20720;-73
2021/03/12 12:23:29;;;;;;;14.77;5.93;;;;;;;;;;8311144;28;20075;-72
2021/03/12 12:27:33;;;;;;;5.03;2.40;;;;;;;;;;8297862;28;20401;-72
2021/03/12 12:31:40;;;;;;;6.88;2.83;;;;;;;;;;8294933;28;20370;-72
2021/03/12 12:35:43;;;;;;;9.32;3.55;;;;;;;;;;8296494;28;20344;-72
2021/03/12 12:39:48;;;;;;;14.45;4.90;;;;;;;;;;8294017;28;20078;-72
2021/03/12 12:43:53;;;;;;;11.32;3.70;;;;;;;;;;8293069;28;20471;-72
2021/03/12 12:47:58;;;;;;;29.63;7.10;;;;;;;;;;8294146;28;20390;-72
2021/03/12 12:52:04;;;;;;;12.95;4.70;;;;;;;;;;8294538;28;20455;-72
2021/03/12 12:56:09;;;;;;;18.77;8.35;;;;;;;;;;8294744;28;20052;-72
2021/03/12 13:00:14;;;;;;;14.05;6.55;;;;;;;;;;8296971;28;20443;-72
2021/03/12 13:04:18;;;;;;;7.65;3.20;;;;;;;;;;8293113;28;20078;-72
2021/03/12 13:08:23;;;;;;;31.42;20.15;;;;;;;;;;8297220;28;20379;-72
2021/03/12 13:12:27;;;;;;;123.00;77.97;;;;;;;;;;8292613;28;20391;-73
2021/03/12 13:16:31;;;;;;;133.25;84.78;;;;;;;;;;8296268;28;20371;-72
2021/03/12 13:20:49;;;;;;;16.23;8.73;;;;;;;;;;8294746;28;20417;-72
2021/03/12 13:24:53;;;;;;;11.45;4.82;;;;;;;;;;8293695;28;20375;-71
2021/03/12 13:28:58;;;;;;;12.35;6.30;;;;;;;;;;8294628;28;20382;-72
2021/03/12 13:33:02;;;;;;;6.93;3.17;;;;;;;;;;8294025;28;20044;-71
2021/03/12 13:37:07;;;;;;;7.32;3.42;;;;;;;;;;8291703;28;20348;-72
2021/03/12 13:41:11;;;;;;;9.93;5.13;;;;;;;;;;8293133;28;20486;-72
2021/03/12 13:45:16;;;;;;;9.43;4.82;;;;;;;;;;8292077;28;20463;-72
2021/03/12 13:49:21;;;;;;;7.15;3.85;;;;;;;;;;8306180;28;20048;-72
2021/03/12 13:53:38;;;;;;;9.23;5.63;;;;;;;;;;8308813;28;20040;-72
2021/03/12 13:57:43;;;;;;;11.32;7.40;;;;;;;;;;8293825;28;20378;-71
2021/03/12 14:01:47;;;;;;;8.13;4.53;;;;;;;;;;8292690;28;20363;-71
2021/03/12 14:05:52;;;;;;;6.97;3.42;;;;;;;;;;8294766;28;20448;-72
2021/03/12 14:09:57;;;;;;;18.08;8.63;;;;;;;;;;8304830;28;20059;-72
2021/03/12 14:14:03;;;;;;;25.63;11.90;;;;;;;;;;8307759;28;20048;-71
2021/03/12 14:18:07;;;;;;;29.30;14.82;;;;;;;;;;8308381;28;20056;-72
2021/03/12 14:22:12;;;;;;;38.85;19.58;;;;;;;;;;8323711;28;20085;-71
2021/03/12 14:26:16;;;;;;;48.13;21.42;;;;;;;;;;8324737;28;20462;-71
2021/03/12 14:30:39;;;;;;;37.67;16.58;;;;;;;;;;8310279;28;20051;-72
2021/03/12 14:34:43;;;;;;;35.10;14.20;;;;;;;;;;8324385;28;20459;-70
2021/03/12 14:38:48;;;;;;;40.30;17.05;;;;;;;;;;8325103;28;20360;-70
2021/03/12 14:42:52;;;;;;;17.40;7.72;;;;;;;;;;8326399;28;20363;-71
2021/03/12 14:46:57;;;;;;;32.22;14.77;;;;;;;;;;8327741;28;20370;-73
2021/03/12 14:51:05;;;;;;;81.75;34.92;;;;;;;;;;8324096;28;20460;-73
2021/03/12 14:55:09;;;;;;;143.13;60.50;;;;;;;;;;8324225;28;20070;-74
2021/03/12 14:59:17;;;;;;;55.97;26.17;;;;;;;;;;8307996;28;20419;-73
2021/03/12 15:03:25;;;;;;;21.60;11.93;;;;;;;;;;8322669;28;20481;-74
2021/03/12 15:07:30;;;;;;;53.22;25.42;;;;;;;;;;8290130;28;20469;-73
2021/03/12 15:11:35;;;;;;;33.97;17.23;;;;;;;;;;8322428;28;20463;-73
2021/03/12 15:15:41;;;;;;;40.28;24.98;;;;;;;;;;8322555;28;20358;-74
2021/03/12 15:19:46;;;;;;;14.43;6.45;;;;;;;;;;8305778;28;20070;-74
2021/03/12 15:23:52;;;;;;;28.10;15.45;;;;;;;;;;8306130;28;20370;-74
2021/03/12 15:27:58;;;;;;;21.85;11.75;;;;;;;;;;8272652;28;20434;-72
2021/03/12 15:32:06;;;;;;;;;;;;;;;;;;8290076;28;20467;-72
2021/03/12 15:36:10;;;;;;;31.58;13.90;;;;;;;;;;8289246;28;20363;-72
2021/03/12 15:40:30;;;;;;;26.30;13.52;;;;;;;;;;8321172;28;20418;-72
2021/03/12 15:44:35;;;;;;;23.73;10.93;;;;;;;;;;8323101;28;20474;-71
2021/03/12 15:48:40;;;;;;;20.77;8.68;;;;;;;;;;8321441;28;20048;-72
2021/03/12 15:53:00;;;;;;;21.38;8.90;;;;;;;;;;8307275;28;20442;-71
2021/03/12 15:57:05;;;;;;;16.85;7.85;;;;;;;;;;8322428;28;20462;-72
2021/03/12 16:01:24;;;;;;;23.67;10.07;;;;;;;;;;8307649;28;20467;-77
2021/03/12 16:05:32;;;;;;;19.60;8.60;;;;;;;;;;8289507;28;20470;-75
2021/03/12 16:09:37;;;;;;;9.75;5.82;;;;;;;;;;8304496;28;20405;-74
2021/03/12 16:13:42;;;;;;;34.45;13.95;;;;;;;;;;8308274;28;20389;-76
2021/03/12 16:17:51;;;;;;;;;;;;;;;;;;8311153;28;20057;-74
2021/03/12 16:22:21;;;;;;;81.93;39.95;;;;;;;;;;8327727;28;20196;-77
2021/03/12 16:26:41;;;;;;;52.60;29.13;;;;;;;;;;8327113;28;20381;-76
2021/03/12 16:30:46;;;;;;;54.60;30.40;;;;;;;;;;8328642;28;20637;-75
2021/03/12 16:34:50;;;;;;;134.15;52.30;;;;;;;;;;8310027;28;20482;-73
2021/03/12 16:39:06;;;;;;;86.30;41.47;;;;;;;;;;8325971;28;20393;-75
2021/03/12 16:43:14;;;;;;;84.10;42.63;;;;;;;;;;8309977;28;20473;-76
2021/03/12 16:47:19;;;;;;;92.70;48.50;;;;;;;;;;8327312;28;20044;-75
2021/03/12 16:51:23;;;;;;;63.92;31.83;;;;;;;;;;8329097;28;20442;-76
2021/03/12 16:55:28;;;;;;;89.63;37.75;;;;;;;;;;8326150;28;20056;-77
2021/03/12 16:59:33;;;;;;;85.03;37.08;;;;;;;;;;8327127;28;20375;-75
2021/03/12 17:03:40;;;;;;;142.75;58.15;;;;;;;;;;8326710;28;20394;-76
2021/03/12 17:07:46;;;;;;;134.13;53.47;;;;;;;;;;8310055;28;20378;-75
2021/03/12 17:11:51;;;;;;;120.18;54.33;;;;;;;;;;8326304;28;20364;-76
2021/03/12 17:15:56;;;;;;;150.98;65.88;;;;;;;;;;8328002;28;20052;-75
2021/03/12 17:20:05;;;;;;;564.05;309.67;;;;;;;;;;8309120;28;20441;-75
2021/03/12 17:24:11;;;;;;;252.25;111.32;;;;;;;;;;8326099;28;20455;-75
2021/03/12 17:28:16;;;;;;;391.15;172.50;;;;;;;;;;8308297;28;20052;-74
2021/03/12 17:32:20;;;;;;;543.70;289.30;;;;;;;;;;8309264;28;20366;-75
2021/03/12 17:36:26;;;;;;;406.17;189.07;;;;;;;;;;8326039;28;20378;-75
2021/03/12 17:40:31;;;;;;;113.53;53.33;;;;;;;;;;8308722;28;20408;-74
2021/03/12 17:44:36;;;;;;;187.52;83.38;;;;;;;;;;8326331;28;20338;-75
2021/03/12 17:48:43;;;;;;;255.20;113.43;;;;;;;;;;8326278;28;20362;-74
2021/03/12 17:52:49;;;;;;;201.27;87.78;;;;;;;;;;8326251;28;20078;-74
2021/03/12 17:56:58;;;;;;;185.60;71.93;;;;;;;;;;8325418;28;20453;-74
2021/03/12 18:01:03;;;;;;;198.20;69.60;;;;;;;;;;8323513;28;20047;-74
2021/03/12 18:05:08;;;;;;;226.10;77.18;;;;;;;;;;8324624;28;20442;-74
2021/03/12 18:09:13;;;;;;;216.32;74.45;;;;;;;;;;8306472;28;20379;-75
2021/03/12 18:13:19;;;;;;;209.05;68.90;;;;;;;;;;8324991;28;20060;-74
2021/03/12 18:17:23;;;;;;;156.50;58.55;;;;;;;;;;8325636;28;20572;-73
2021/03/12 18:21:28;;;;;;;152.98;57.15;;;;;;;;;;8324354;28;20481;-74
2021/03/12 18:25:32;;;;;;;177.23;62.65;;;;;;;;;;8325060;28;20450;-73
2021/03/12 18:29:38;;;;;;;96.57;37.95;;;;;;;;;;8323772;28;20393;-73
2021/03/12 18:33:42;;;;;;;143.43;51.85;;;;;;;;;;8324136;28;20458;-73
2021/03/12 18:37:53;;;;;;;120.63;43.00;;;;;;;;;;8307437;28;20378;-73
2021/03/12 18:41:58;;;;;;;123.72;42.53;;;;;;;;;;8324865;28;20355;-73
2021/03/12 18:46:03;;;;;;;96.15;39.95;;;;;;;;;;8323541;28;20385;-72
2021/03/12 18:50:09;;;;;;;83.88;38.05;;;;;;;;;;8326806;28;20359;-72
2021/03/12 18:54:13;;;;;;;93.13;35.55;;;;;;;;;;8306189;28;20052;-71
2021/03/12 18:58:22;;;;;;;81.10;33.22;;;;;;;;;;8323879;28;20381;-71
2021/03/12 19:02:26;;;;;;;75.28;32.78;;;;;;;;;;8306521;28;20051;-72
2021/03/12 19:06:31;;;;;;;79.95;34.85;;;;;;;;;;8324335;28;20056;-71
2021/03/12 19:10:37;;;;;;;89.57;37.35;;;;;;;;;;8323255;28;20083;-71
2021/03/12 19:14:41;;;;;;;101.53;43.78;;;;;;;;;;8305158;28;20481;-71
2021/03/12 19:18:46;;;;;;;115.75;46.95;;;;;;;;;;8323175;28;20481;-70
2021/03/12 19:22:51;;;;;;;107.28;46.28;;;;;;;;;;8323101;28;20365;-71
2021/03/12 19:26:56;;;;;;;121.82;43.20;;;;;;;;;;8322635;28;20451;-71
2021/03/12 19:31:01;;;;;;;101.25;41.00;;;;;;;;;;8322926;28;20393;-71
2021/03/12 19:35:08;;;;;;;104.78;39.15;;;;;;;;;;8323130;28;20410;-71
2021/03/12 19:39:13;;;;;;;93.93;37.50;;;;;;;;;;8323791;28;20401;-70
2021/03/12 19:43:17;;;;;;;88.35;32.75;;;;;;;;;;8320612;28;20056;-70
2021/03/12 19:47:23;;;;;;;79.78;30.60;;;;;;;;;;8327099;28;20375;-70
2021/03/12 19:51:28;;;;;;;94.00;35.35;;;;;;;;;;8329642;28;20417;-70
2021/03/12 19:55:33;;;;;;;94.57;35.50;;;;;;;;;;8329469;28;20405;-69
2021/03/12 19:59:38;;;;;;;97.80;37.03;;;;;;;;;;8311954;28;20047;-69
2021/03/12 20:03:42;;;;;;;113.90;40.28;;;;;;;;;;8294623;28;20485;-69
2021/03/12 20:07:47;;;;;;;117.43;38.60;;;;;;;;;;8328429;28;20504;-69
2021/03/12 20:11:53;;;;;;;95.40;34.08;;;;;;;;;;8292309;28;20394;-68
2021/03/12 20:15:58;;;;;;;92.57;36.58;;;;;;;;;;8277804;28;20403;-69
2021/03/12 20:20:07;;;;;;;74.97;29.10;;;;;;;;;;8296202;28;20620;-70
2021/03/12 20:24:15;;;;;;;111.93;44.03;;;;;;;;;;8294025;28;20061;-70
2021/03/12 20:28:19;;;;;;;114.88;41.65;;;;;;;;;;8293656;28;20048;-69
2021/03/12 20:32:24;;;;;;;97.47;38.45;;;;;;;;;;8295865;28;20487;-68
2021/03/12 20:36:28;;;;;;;87.65;33.63;;;;;;;;;;8295763;28;20469;-68
2021/03/12 20:40:34;;;;;;;132.77;39.88;;;;;;;;;;8293587;28;20447;-69
2021/03/12 20:44:38;;;;;;;126.95;38.42;;;;;;;;;;8295807;28;20336;-69
2021/03/12 20:48:42;;;;;;;94.07;31.42;;;;;;;;;;8296447;28;20474;-68
2021/03/12 20:52:48;;;;;;;94.15;31.60;;;;;;;;;;8293903;28;20423;-69
2021/03/12 20:56:54;;;;;;;87.88;28.90;;;;;;;;;;8293960;28;20532;-69
2021/03/12 21:01:01;;;;;;;85.97;27.38;;;;;;;;;;8295355;28;20756;-68
2021/03/12 21:05:08;;;;;;;75.25;24.92;;;;;;;;;;8294696;28;20454;-69
2021/03/12 21:09:12;;;;;;;73.35;28.08;;;;;;;;;;8297799;28;20422;-69
2021/03/12 21:13:17;;;;;;;86.82;27.95;;;;;;;;;;8326674;28;20496;-69
2021/03/12 21:17:21;;;;;;;75.40;26.60;;;;;;;;;;8328493;28;20430;-69
2021/03/12 21:21:26;;;;;;;68.88;26.13;;;;;;;;;;8328059;28;20051;-67
2021/03/12 21:25:31;;;;;;;83.90;28.58;;;;;;;;;;8309699;28;20066;-69
2021/03/12 21:29:35;;;;;;;75.88;25.17;;;;;;;;;;8327695;28;20355;-68
2021/03/12 21:33:44;;;;;;;67.30;22.95;;;;;;;;;;8325537;28;20393;-69
2021/03/12 21:37:52;;;;;;;65.95;23.02;;;;;;;;;;8326038;28;20036;-69
2021/03/12 21:42:02;;;;;;;67.65;23.40;;;;;;;;;;8331433;28;20359;-70
2021/03/12 21:46:06;;;;;;;69.40;23.48;;;;;;;;;;8328364;28;20354;-69
2021/03/12 21:50:15;;;;;;;71.50;25.17;;;;;;;;;;8328684;28;20339;-68
2021/03/12 21:54:20;;;;;;;;;;;;;;;;;;8325387;28;20473;-70
2021/03/12 21:58:27;;;;;;;70.90;25.20;;;;;;;;;;8291622;28;20244;-68
2021/03/12 22:02:31;;;;;;;68.07;25.67;;;;;;;;;;8326587;28;20375;-67
2021/03/12 22:06:36;;;;;;;67.78;22.17;;;;;;;;;;8326713;28;20340;-68
2021/03/12 22:10:41;;;;;;;73.13;23.25;;;;;;;;;;8323586;28;20471;-68
2021/03/12 22:14:45;;;;;;;65.35;22.98;;;;;;;;;;8326376;28;20089;-68
2021/03/12 22:18:50;;;;;;;64.50;21.15;;;;;;;;;;8325937;28;20055;-70
2021/03/12 22:22:54;;;;;;;71.65;24.83;;;;;;;;;;8325029;28;20382;-69
2021/03/12 22:27:02;;;;;;;63.88;24.60;;;;;;;;;;8324756;28;20052;-69
2021/03/12 22:31:07;;;;;;;81.18;25.38;;;;;;;;;;8324356;28;20052;-68
2021/03/12 22:35:13;;;;;;;90.60;26.88;;;;;;;;;;8323867;28;20508;-68
2021/03/12 22:39:17;;;;;;;96.63;28.67;;;;;;;;;;8324634;28;20467;-68
2021/03/12 22:43:23;;;;;;;90.88;28.92;;;;;;;;;;8323587;28;20446;-68
2021/03/12 22:47:27;;;;;;;112.72;32.30;;;;;;;;;;8324913;28;20483;-68
2021/03/12 22:51:34;;;;;;;108.38;33.83;;;;;;;;;;8325112;28;20335;-68
2021/03/12 22:55:42;;;;;;;115.43;34.40;;;;;;;;;;8324395;28;20378;-68
2021/03/12 22:59:47;;;;;;;121.10;33.42;;;;;;;;;;8306510;28;20421;-68
2021/03/12 23:04:04;;;;;;;82.30;27.05;;;;;;;;;;8306926;28;20431;-68
2021/03/12 23:08:20;;;;;;;77.78;26.05;;;;;;;;;;8276037;28;20482;-68
2021/03/12 23:12:28;;;;;;;83.38;26.33;;;;;;;;;;8321718;28;20484;-69
2021/03/12 23:16:31;;;;;;;93.78;28.02;;;;;;;;;;8304035;28;20359;-69
2021/03/12 23:20:38;;;;;;;69.40;24.13;;;;;;;;;;8305475;28;20368;-68
2021/03/12 23:24:42;;;;;;;158.90;39.63;;;;;;;;;;8323286;28;20438;-69
2021/03/12 23:28:51;;;;;;;125.13;33.28;;;;;;;;;;8323093;28;20370;-68
2021/03/12 23:32:55;;;;;;;277.52;60.95;;;;;;;;;;8323661;28;20377;-69
2021/03/12 23:37:03;;;;;;;149.43;38.92;;;;;;;;;;8324482;28;20351;-68
2021/03/12 23:41:08;;;;;;;125.65;35.95;;;;;;;;;;8325373;28;20465;-68
2021/03/12 23:45:15;;;;;;;81.95;24.00;;;;;;;;;;8323989;28;20344;-68
2021/03/12 23:49:20;;;;;;;80.00;24.30;;;;;;;;;;8326151;28;20430;-68
2021/03/12 23:53:26;;;;;;;87.80;24.85;;;;;;;;;;8323333;28;20498;-69
2021/03/12 23:57:31;;;;;;;225.93;55.08;;;;;;;;;;8322601;28;20381;-68
